createdAt,value
2022-12-11T00:01:45.346Z,89.13
2022-12-11T00:07:04.212Z,88.46
2022-12-11T00:12:23.391Z,88.09
2022-12-11T00:17:43.017Z,87.75
2022-12-11T00:23:01.966Z,87.65
2022-12-11T00:28:21.594Z,87.14
2022-12-11T00:33:40.685Z,87.22
2022-12-11T00:39:00.169Z,87.66
2022-12-11T00:44:19.172Z,87.42
2022-12-11T00:49:38.997Z,87.25
2022-12-11T00:54:58.619Z,87.37
2022-12-11T01:00:17.625Z,87.35
2022-12-11T01:05:36.837Z,86.41
2022-12-11T01:10:56.086Z,86.08
2022-12-11T01:16:15.343Z,85.86
2022-12-11T01:21:34.506Z,85.72
2022-12-11T01:26:53.626Z,86.01
2022-12-11T01:32:13.258Z,86.25
2022-12-11T01:37:32.984Z,86.56
2022-12-11T01:42:52.003Z,86.46
2022-12-11T01:48:10.941Z,86
2022-12-11T01:53:29.881Z,86.22
2022-12-11T01:58:49.280Z,86.57
2022-12-11T02:04:08.268Z,87.04
2022-12-11T02:09:27.350Z,87.19
2022-12-11T02:14:45.967Z,87.36
2022-12-11T02:20:05.572Z,87.38
2022-12-11T02:25:24.848Z,87.59
2022-12-11T02:30:44.541Z,87.78
2022-12-11T02:36:03.717Z,88.31
2022-12-11T02:41:22.670Z,88.82
2022-12-11T02:46:42.348Z,88.97
2022-12-11T02:52:02.032Z,88.79
2022-12-11T02:57:21.103Z,88.99
2022-12-11T03:02:40.286Z,89.33
2022-12-11T03:07:59.801Z,89.85
2022-12-11T03:13:19.490Z,90.24
2022-12-11T03:18:39.337Z,90.95
2022-12-11T03:23:58.521Z,91.35
2022-12-11T03:29:18.325Z,91.62
2022-12-11T03:34:37.814Z,92
2022-12-11T03:39:57.262Z,92.32
2022-12-11T03:45:16.248Z,92.54
2022-12-11T03:50:35.208Z,92.81
2022-12-11T03:55:54.995Z,92.87
2022-12-11T04:01:14.066Z,93.06
2022-12-11T04:06:33.772Z,92.99
2022-12-11T04:11:53.060Z,93.84
2022-12-11T04:17:12.893Z,94.74
2022-12-11T04:22:31.977Z,95.49
2022-12-11T04:27:51.468Z,95.78
2022-12-11T04:33:10.483Z,95.59
2022-12-11T04:38:30.094Z,95.59
2022-12-11T04:43:49.403Z,95.4
2022-12-11T04:49:08.566Z,95.45
2022-12-11T04:54:28.172Z,95.94
2022-12-11T04:59:47.771Z,96.48
2022-12-11T05:05:07.304Z,96.86
2022-12-11T05:10:26.691Z,97.2
2022-12-11T05:15:45.734Z,97.35
2022-12-11T05:21:04.952Z,97.27
2022-12-11T05:26:23.997Z,96.65
2022-12-11T05:31:43.680Z,96.07
2022-12-11T05:37:02.660Z,95.74
2022-12-11T05:42:27.097Z,95.53
2022-12-11T05:47:41.829Z,95.77
2022-12-11T05:53:01.551Z,95.84
2022-12-11T05:58:20.582Z,95.99
2022-12-11T06:03:39.477Z,96.16
2022-12-11T06:08:58.436Z,96.21
2022-12-11T06:14:17.628Z,96.01
2022-12-11T06:19:37.745Z,95.8
2022-12-11T06:24:56.611Z,95.85
2022-12-11T06:30:15.464Z,95.89
2022-12-11T06:35:40.213Z,95.85
2022-12-11T06:40:54.492Z,96
2022-12-11T06:46:14.014Z,96.01
2022-12-11T06:51:33.033Z,95.98
2022-12-11T06:56:52.530Z,96.07
2022-12-11T07:02:12.399Z,96.17
2022-12-11T07:07:31.427Z,96.57
2022-12-11T07:12:50.556Z,97.16
2022-12-11T07:19:24.756Z,97.65
2022-12-11T07:23:31.127Z,97.99
2022-12-11T07:28:50.216Z,97.93
2022-12-11T07:34:08.259Z,97.52
2022-12-11T07:39:27.765Z,97
2022-12-11T07:44:46.727Z,96.51
2022-12-11T07:50:06.090Z,96.29
2022-12-11T07:55:25.669Z,96.07
2022-12-11T08:00:44.125Z,95.61
2022-12-11T08:06:03.105Z,95.22
2022-12-11T08:11:22.662Z,94.68
2022-12-11T08:16:41.938Z,94.11
2022-12-11T08:22:01.409Z,93.42
2022-12-11T08:27:20.865Z,93.11
2022-12-11T08:32:40.462Z,93.27
2022-12-11T08:38:00.259Z,93.11
2022-12-11T08:43:19.211Z,93.15
2022-12-11T08:48:38.000Z,92.91
2022-12-11T08:53:57.288Z,93.23
2022-12-11T08:59:16.830Z,93.42
2022-12-11T09:04:35.857Z,93.08
2022-12-11T09:09:55.573Z,92.78
2022-12-11T09:15:15.345Z,92.04
2022-12-11T09:20:34.266Z,92.03
2022-12-11T09:25:53.330Z,91.79
2022-12-11T09:31:12.274Z,91.46
2022-12-11T09:36:31.923Z,90.72
2022-12-11T09:41:52.459Z,91.14
2022-12-11T09:47:12.201Z,90.67
2022-12-11T09:52:31.284Z,90.36
2022-12-11T09:57:50.355Z,89.64
2022-12-11T10:03:09.899Z,89.1
2022-12-11T10:08:29.014Z,90.44
2022-12-11T10:13:47.844Z,89.85
2022-12-11T10:19:07.529Z,89.59
2022-12-11T10:24:57.797Z,89.36
2022-12-11T10:29:45.731Z,89.94
2022-12-11T10:35:05.279Z,89.48
2022-12-11T10:40:24.608Z,89.67
2022-12-11T10:45:43.921Z,89.64
2022-12-11T10:51:03.739Z,89.43
2022-12-11T10:56:23.440Z,89.36
2022-12-11T11:01:42.466Z,89.28
2022-12-11T11:07:02.269Z,89.79
2022-12-11T11:12:21.108Z,89.57
2022-12-11T11:17:46.171Z,88.78
2022-12-11T11:22:59.753Z,88.72
2022-12-11T11:28:19.219Z,89.35
2022-12-11T11:33:38.312Z,88.97
2022-12-11T11:38:58.123Z,88.91
2022-12-11T11:44:17.236Z,88.96
2022-12-11T11:49:36.434Z,89.41
2022-12-11T11:54:55.617Z,89.17
2022-12-11T12:00:14.933Z,89.81
2022-12-11T12:05:34.706Z,90.33
2022-12-11T12:10:53.581Z,89.32
2022-12-11T12:16:29.432Z,90.14
2022-12-11T12:21:31.889Z,90.73
2022-12-11T12:26:51.197Z,91.23
2022-12-11T12:32:10.640Z,90.93
2022-12-11T12:37:29.926Z,91.88
2022-12-11T12:42:48.936Z,91.58
2022-12-11T12:48:07.838Z,91.81
2022-12-11T12:53:26.865Z,91.34
2022-12-11T12:58:45.926Z,91.35
2022-12-11T13:04:05.063Z,90.93
2022-12-11T13:09:24.369Z,90.42
2022-12-11T13:14:44.453Z,89.98
2022-12-11T13:20:04.299Z,90.79
2022-12-11T13:25:23.305Z,91.01
2022-12-11T13:30:42.327Z,90.49
2022-12-11T13:36:01.888Z,91.61
2022-12-11T13:41:21.543Z,91.64
2022-12-11T13:46:40.778Z,92.33
2022-12-11T13:52:00.389Z,92.84
2022-12-11T13:57:19.465Z,92.88
2022-12-11T14:02:38.758Z,93.09
2022-12-11T14:03:04.852Z,91.28
2022-12-11T14:08:24.182Z,93.03
2022-12-11T14:13:43.225Z,91.76
2022-12-11T14:19:02.834Z,92
2022-12-11T14:24:22.325Z,91.31
2022-12-11T14:29:41.661Z,90.71
2022-12-11T14:35:01.072Z,90.27
2022-12-11T14:40:20.189Z,89.95
2022-12-11T14:45:39.856Z,90.54
2022-12-11T14:50:59.157Z,89.89
2022-12-11T14:56:18.176Z,89.98
2022-12-11T15:01:37.206Z,90.91
2022-12-11T15:06:56.846Z,91.4
2022-12-11T15:12:15.477Z,91.42
2022-12-11T15:17:34.780Z,91.35
2022-12-11T15:22:53.623Z,91.37
2022-12-11T15:28:13.124Z,91.78
2022-12-11T15:33:34.653Z,91.92
2022-12-11T15:38:52.960Z,92.31
2022-12-11T15:44:11.805Z,92.75
2022-12-11T15:49:30.681Z,92.86
2022-12-11T15:54:50.488Z,92.91
2022-12-11T16:00:09.598Z,92.88
2022-12-11T16:05:28.532Z,93.07
2022-12-11T16:10:48.340Z,93.07
2022-12-11T16:16:07.753Z,93.07
2022-12-11T16:21:27.121Z,93.35
2022-12-11T16:26:46.245Z,93.67
2022-12-11T16:32:05.086Z,93.64
2022-12-11T16:37:24.510Z,93.66
2022-12-11T16:42:44.272Z,94.01
2022-12-11T16:48:03.153Z,94.68
2022-12-11T16:53:22.666Z,95.15
2022-12-11T16:58:42.273Z,95.26
2022-12-11T17:04:01.439Z,95.21
2022-12-11T17:09:20.359Z,94.98
2022-12-11T17:14:39.867Z,94.54
2022-12-11T17:19:58.937Z,94.21
2022-12-11T17:25:18.267Z,94.18
2022-12-11T17:30:37.654Z,94.43
2022-12-11T17:35:57.242Z,94.7
2022-12-11T17:41:20.269Z,95.1
2022-12-11T17:46:35.972Z,95.35
2022-12-11T17:51:54.768Z,95.51
2022-12-11T17:57:14.151Z,95.56
2022-12-11T18:03:48.367Z,95.29
2022-12-11T18:07:57.598Z,94.39
2022-12-11T18:13:12.336Z,93.81
2022-12-11T18:18:31.548Z,93.41
2022-12-11T18:23:50.960Z,94.47
2022-12-11T18:29:10.049Z,95.55
2022-12-11T18:34:29.716Z,96.01
2022-12-11T18:39:49.439Z,96.44
2022-12-11T18:45:08.778Z,96.94
2022-12-11T18:50:28.487Z,97.18
2022-12-11T18:55:48.050Z,97.3
2022-12-11T19:01:07.231Z,97.12
2022-12-11T19:06:26.214Z,96.64
2022-12-11T19:11:45.692Z,95.66
2022-12-11T19:17:05.609Z,94.53
2022-12-11T19:22:24.807Z,93.83
2022-12-11T19:27:43.920Z,93.77
2022-12-11T19:33:03.383Z,93.97
2022-12-11T19:38:22.616Z,94.21
2022-12-11T19:43:41.917Z,94.38
2022-12-11T19:49:01.460Z,94.49
2022-12-11T19:54:20.542Z,94.51
2022-12-11T19:59:39.697Z,94.36
2022-12-11T20:04:59.356Z,94.14
2022-12-11T20:10:18.381Z,94.17
2022-12-11T20:15:37.577Z,93.99
2022-12-11T20:20:57.198Z,93.75
2022-12-11T20:26:16.303Z,93.29
2022-12-11T20:31:35.820Z,92.97
2022-12-11T20:36:54.172Z,92.85
2022-12-11T20:42:13.133Z,92.7
2022-12-11T20:47:32.249Z,93.13
2022-12-11T20:52:51.801Z,93.42
2022-12-11T20:58:10.833Z,94.35
2022-12-11T21:03:30.074Z,94.81
2022-12-11T21:08:49.743Z,94.87
2022-12-11T21:14:08.931Z,95.54
2022-12-11T21:19:28.464Z,95.89
2022-12-11T21:24:47.774Z,96.31
2022-12-11T21:30:07.429Z,96.82
2022-12-11T21:35:27.741Z,97.44
2022-12-11T21:40:47.354Z,97.92
2022-12-11T21:46:06.050Z,98.32
2022-12-11T21:51:25.138Z,98.4
2022-12-11T21:56:44.138Z,98.37
2022-12-11T22:02:04.320Z,98.28
2022-12-11T22:07:23.156Z,98.35
2022-12-11T22:13:57.273Z,98.37
2022-12-11T22:18:02.942Z,98.44
2022-12-11T22:23:22.010Z,98.45
2022-12-11T22:28:42.013Z,98.3
2022-12-11T22:34:01.036Z,97.87
2022-12-11T22:39:20.413Z,97.51
2022-12-11T22:44:39.509Z,97.12
2022-12-11T22:49:58.409Z,97
2022-12-11T22:55:17.252Z,96.95
2022-12-11T23:00:35.960Z,96.86
2022-12-11T23:05:55.451Z,96.84
2022-12-11T23:11:15.305Z,96.7
2022-12-11T23:16:34.815Z,96.96
2022-12-11T23:21:53.723Z,97.41
2022-12-11T23:27:13.022Z,97.63
2022-12-11T23:32:31.878Z,97.89
2022-12-11T23:37:51.309Z,98.23
2022-12-11T23:43:11.330Z,98.39
2022-12-11T23:48:30.360Z,98.36
2022-12-11T23:53:49.319Z,98.08
